Time;durP1;ratioP1;P1;durP2;ratioP2;P2;SDS_P1;SDS_P2;PMS_P1;PMS_P2;Temp;Humidity;BMP_temperature;BMP_pressure;BME280_temperature;BME280_humidity;BME280_pressure;Samples;Min_cycle;Max_cycle;Signal;HPM_P1;HPM_P2
2022/01/13 00:05:39;;;;;;;;;;;;;;;;;;;;;
2022/01/13 00:11:50;;;;;;;112.28;26.98;;;;;;;;;;4710708;30;20454;-81
2022/01/13 00:27:13;;;;;;;84.00;24.83;;;;;;;;;;4814715;29;20425;-81
2022/01/13 00:29:51;;;;;;;78.07;24.25;;;;;;;;;;4837551;29;20440;-81
2022/01/13 00:32:48;;;;;;;79.22;24.50;;;;;;;;;;4800490;29;20932;-81
2022/01/13 00:45:55;;;;;;;69.53;23.73;;;;;;;;;;4818121;29;20462;-82
2022/01/13 00:51:43;;;;;;;90.60;25.40;;;;;;;;;;4874197;29;20431;-82
2022/01/13 01:31:27;;;;;;;82.30;25.00;;;5.20;99.90;;;;;;4913549;29;20404;-82
2022/01/13 01:37:51;;;;;;;86.50;24.50;;;;;;;;;;4912341;29;20428;-82
2022/01/13 01:40:20;;;;;;;97.80;25.75;;;;;;;;;;4816605;29;20473;-82
2022/01/13 01:43:26;;;;;;;83.40;24.63;;;5.20;99.90;;;;;;4820772;29;20527;-82
2022/01/13 01:46:04;;;;;;;96.88;27.60;;;;;;;;;;4811537;29;20439;-82
2022/01/13 01:48:58;;;;;;;91.60;26.27;;;;;;;;;;4806447;29;20524;-81
2022/01/13 01:51:27;;;;;;;355.95;46.90;;;;;;;;;;4821794;29;20436;-81
2022/01/13 01:53:59;;;;;;;85.40;25.57;;;;;;;;;;4822491;29;20456;-81
2022/01/13 01:56:28;;;;;;;81.38;24.63;;;;;;;;;;4806030;29;20858;-81
2022/01/13 02:05:42;;;;;;;91.50;25.73;;;;;;;;;;4894819;28;20433;-82
2022/01/13 02:09:00;;;;;;;74.40;24.75;;;;;;;;;;4876488;29;20422;-83
2022/01/13 02:11:52;;;;;;;90.50;26.23;;;;;;;;;;4876304;29;20423;-82
2022/01/13 02:18:21;;;;;;;119.55;27.88;;;;;;;;;;4890650;29;20454;-82
2022/01/13 02:21:28;;;;;;;93.22;25.42;;;;;;;;;;4765867;30;20442;-82
2022/01/13 02:24:29;;;;;;;92.70;23.60;;;;;;;;;;4751633;30;20482;-82
2022/01/13 02:26:55;;;;;;;106.10;24.45;;;;;;;;;;4748217;30;20523;-82
2022/01/13 02:29:21;;;;;;;121.37;27.03;;;;;;;;;;4752144;29;20979;-82
2022/01/13 02:31:47;;;;;;;107.50;24.77;;;;;;;;;;4823110;29;20470;-82
2022/01/13 02:34:16;;;;;;;119.93;24.63;;;;;;;;;;4923023;28;20960;-82
2022/01/13 02:36:46;;;;;;;101.35;24.67;;;;;;;;;;4934877;29;20942;-82
2022/01/13 02:39:21;;;;;;;116.07;25.75;;;;;;;;;;4915460;28;20437;-82
2022/01/13 02:41:47;;;;;;;119.30;26.33;;;;;;;;;;4919020;29;20475;-82
2022/01/13 02:44:24;;;;;;;83.55;24.63;;;;;;;;;;4918687;29;20926;-82
2022/01/13 02:49:36;;;;;;;94.30;24.75;;;;;;;;;;4919664;28;20868;-83
2022/01/13 02:52:06;;;;;;;125.13;27.48;;;;;;;;;;4934068;29;20512;-83
2022/01/13 02:54:35;;;;;;;174.57;31.98;;;;;;;;;;4934489;28;20509;-83
2022/01/13 02:57:01;;;;;;;105.22;26.23;;;;;;;;;;4906580;29;20436;-83
2022/01/13 02:59:27;;;;;;;109.47;26.75;;;;;;;;;;4918957;29;20453;-83
2022/01/13 03:01:53;;;;;;;111.55;26.63;;;;;;;;;;4935239;28;20800;-83
2022/01/13 03:04:21;;;;;;;106.63;26.88;;;;;;;;;;4914739;28;20429;-83
2022/01/13 03:06:48;;;;;;;126.90;27.70;;;;;;;;;;4920508;28;20941;-83
2022/01/13 03:09:46;;;;;;;307.30;44.83;;;;;;;;;;4922554;29;20505;-82
2022/01/13 03:12:18;;;;;;;123.88;29.00;;;;;;;;;;4922660;29;20426;-80
2022/01/13 03:14:47;;;;;;;129.15;28.92;;;;;;;;;;4937160;28;20460;-80
2022/01/13 03:17:13;;;;;;;122.45;28.58;;;;;;;;;;4921283;28;20932;-80
2022/01/13 03:19:42;;;;;;;131.05;27.98;;;;;;;;;;4917785;29;20428;-80
2022/01/13 03:22:08;;;;;;;145.38;30.55;;;;;;;;;;4937976;29;20468;-80
2022/01/13 03:24:39;;;;;;;158.32;31.10;;;;;;;;;;4918816;29;20429;-80
2022/01/13 03:27:20;;;;;;;139.03;30.33;;;;;;;;;;4906595;29;20425;-80
2022/01/13 03:29:49;;;;;;;131.60;29.63;;;;;;;;;;4926064;28;20432;-80
2022/01/13 03:32:49;;;;;;;;;;;;;;;;;;;;;
2022/01/13 03:39:51;;;;;;;;;;;;;;;;;;;;;
2022/01/13 03:42:47;;;;;;;126.68;29.85;;;;;;;;;;4871515;29;20454;-80
2022/01/13 03:45:33;;;;;;;310.07;41.80;;;;;;;;;;4916562;29;20445;-80
2022/01/13 03:51:47;;;;;;;149.07;30.80;;;;;;;;;;4901901;28;20434;-80
2022/01/13 03:54:40;;;;;;;154.93;31.57;;;;;;;;;;4916440;28;20465;-80
2022/01/13 03:57:45;;;;;;;149.60;31.13;;;5.10;99.90;;;;;;4937251;29;20438;-80
2022/01/13 04:00:40;;;;;;;139.82;30.05;;;;;;;;;;4920073;29;20423;-80
2022/01/13 04:03:10;;;;;;;761.40;87.45;;;;;;;;;;4900347;29;20924;-80
2022/01/13 04:05:54;;;;;;;194.30;34.05;;;;;;;;;;4907736;29;20487;-80
2022/01/13 04:08:27;;;;;;;183.15;30.70;;;;;;;;;;4897473;29;20426;-79
2022/01/13 04:14:13;;;;;;;199.57;33.50;;;;;;;;;;4877249;29;20426;-80
2022/01/13 04:16:54;;;;;;;204.88;34.03;;;;;;;;;;4894028;29;20438;-80
2022/01/13 04:19:38;;;;;;;295.08;38.83;;;;;;;;;;4845155;29;20434;-80
2022/01/13 04:22:35;;;;;;;420.10;48.10;;;;;;;;;;4876242;29;20449;-80
2022/01/13 04:25:04;;;;;;;223.98;34.22;;;;;;;;;;4852007;29;20437;-80
2022/01/13 04:27:43;;;;;;;254.85;35.00;;;;;;;;;;4861457;29;20903;-80
2022/01/13 04:33:01;;;;;;;202.15;34.85;;;;;;;;;;4892676;29;20519;-80
2022/01/13 04:35:28;;;;;;;306.77;38.50;;;;;;;;;;4885697;29;20426;-80
2022/01/13 04:37:57;;;;;;;302.30;41.22;;;;;;;;;;4874664;29;20424;-80
2022/01/13 04:40:23;;;;;;;210.85;34.55;;;;;;;;;;4884099;29;20469;-80
2022/01/13 04:42:56;;;;;;;204.65;34.65;;;;;;;;;;4878006;29;20455;-80
2022/01/13 04:45:27;;;;;;;219.43;35.28;;;;;;;;;;4879379;29;20795;-79
2022/01/13 04:47:54;;;;;;;250.38;39.22;;;;;;;;;;4934871;29;20429;-80
2022/01/13 04:50:24;;;;;;;228.63;37.42;;;;;;;;;;4912790;29;20931;-80
2022/01/13 04:52:51;;;;;;;282.67;41.63;;;;;;;;;;4926989;28;20503;-80
2022/01/13 04:55:23;;;;;;;247.27;37.50;;;;;;;;;;4918895;29;20787;-79
2022/01/13 04:57:50;;;;;;;181.40;34.83;;;;;;;;;;4919451;29;20422;-79
2022/01/13 05:00:19;;;;;;;228.48;38.25;;;;;;;;;;4920086;29;20437;-79
2022/01/13 05:02:45;;;;;;;245.90;38.80;;;;;;;;;;4918712;29;20897;-79
2022/01/13 05:05:12;;;;;;;254.68;39.90;;;;;;;;;;4912605;29;20559;-79
2022/01/13 05:07:45;;;;;;;494.95;58.08;;;;;;;;;;4932228;28;20798;-79
2022/01/13 05:10:30;;;;;;;221.60;37.90;;;;;;;;;;4925839;28;20814;-80
2022/01/13 05:13:09;;;;;;;208.15;35.78;;;;;;;;;;4917628;28;21018;-80
2022/01/13 05:15:42;;;;;;;244.05;41.47;;;;;;;;;;4918636;28;20580;-80
2022/01/13 05:20:48;;;;;;;271.63;41.50;;;;;;;;;;4936225;29;20472;-79
2022/01/13 05:23:34;;;;;;;338.63;46.58;;;;;;;;;;4911579;29;22008;-80
2022/01/13 05:26:10;;;;;;;279.52;39.83;;;;;;;;;;4927480;28;20484;-79
2022/01/13 05:28:38;;;;;;;285.15;43.70;;;;;;;;;;4918079;29;20473;-79
2022/01/13 05:31:04;;;;;;;283.25;42.67;;;;;;;;;;4910740;28;20512;-79
2022/01/13 05:33:33;;;;;;;318.67;44.60;;;;;;;;;;4919300;29;20461;-79
2022/01/13 05:36:09;;;;;;;265.05;41.22;;;;;;;;;;4904679;29;20423;-79
2022/01/13 05:38:42;;;;;;;689.40;73.53;;;;;;;;;;4918699;28;20914;-79
2022/01/13 05:41:14;;;;;;;288.27;41.83;;;;;;;;;;4918490;29;20418;-79
2022/01/13 05:43:41;;;;;;;299.60;43.40;;;;;;;;;;4917706;29;20518;-79
2022/01/13 05:46:09;;;;;;;303.25;41.67;;;;;;;;;;4918518;28;20426;-79
2022/01/13 05:48:38;;;;;;;387.53;48.43;;;;;;;;;;4934445;29;20596;-79
2022/01/13 05:51:04;;;;;;;286.48;43.03;;;;;;;;;;4917825;29;20429;-79
2022/01/13 05:53:33;;;;;;;746.33;80.93;;;;;;;;;;4934598;29;20834;-79
2022/01/13 05:56:12;;;;;;;293.73;42.83;;;;;;;;;;4917870;29;20436;-79
2022/01/13 05:58:39;;;;;;;295.10;44.22;;;;;;;;;;4916081;29;20433;-79
2022/01/13 06:01:05;;;;;;;280.58;43.00;;;;;;;;;;4917207;29;20426;-80
2022/01/13 06:03:34;;;;;;;487.42;59.42;;;;;;;;;;4917550;28;20505;-78
2022/01/13 06:06:04;;;;;;;594.53;64.60;;;;;;;;;;4903500;29;20906;-78
2022/01/13 06:08:38;;;;;;;379.50;50.47;;;;;;;;;;4917519;28;20433;-78
2022/01/13 06:11:04;;;;;;;1189.30;114.45;;;;;;;;;;4918198;29;20430;-78
2022/01/13 06:13:33;;;;;;;421.47;51.67;;;;;;;;;;4918410;28;20441;-78
2022/01/13 06:16:02;;;;;;;929.15;89.95;;;;;;;;;;4912925;28;20501;-78
2022/01/13 06:18:29;;;;;;;308.85;47.45;;;;;;;;;;4934779;28;20778;-78
2022/01/13 06:21:06;;;;;;;417.23;53.25;;;;;;;;;;4908099;29;20458;-78
2022/01/13 06:23:32;;;;;;;502.45;57.30;;;;;;;;;;4920229;29;20492;-77
2022/01/13 06:25:59;;;;;;;401.40;51.35;;;;;;;;;;4917113;28;20430;-78
2022/01/13 06:28:26;;;;;;;382.67;50.10;;;;;;;;;;4915861;28;20777;-78
2022/01/13 06:30:52;;;;;;;377.70;49.05;;;;;;;;;;4917197;29;20480;-78
2022/01/13 06:33:21;;;;;;;319.15;46.90;;;;;;;;;;4916915;28;20929;-78
2022/01/13 06:35:52;;;;;;;373.17;52.72;;;;;;;;;;4932300;29;20466;-78
2022/01/13 06:38:19;;;;;;;318.45;46.53;;;;;;;;;;4921532;29;20429;-78
2022/01/13 06:40:50;;;;;;;456.30;57.53;;;;;;;;;;4923223;28;20512;-78
2022/01/13 06:43:16;;;;;;;339.87;47.60;;;;;;;;;;4922850;28;20437;-77
2022/01/13 06:45:49;;;;;;;327.30;47.63;;;;;;;;;;4921771;28;20692;-78
2022/01/13 06:48:18;;;;;;;325.52;49.10;;;;;;;;;;4915063;29;21009;-77
2022/01/13 06:50:52;;;;;;;292.75;47.28;;;;;;;;;;4920174;28;21009;-78
2022/01/13 06:53:45;;;;;;;421.23;53.90;;;;;;;;;;4921375;29;20494;-78
2022/01/13 06:56:26;;;;;;;313.42;46.38;;;;;;;;;;4858437;29;20456;-78
2022/01/13 06:59:20;;;;;;;;;;;;;;;;;;;;;
2022/01/13 07:01:50;;;;;;;322.08;45.75;;;;;;;;;;4935723;28;20454;-82
2022/01/13 07:04:22;;;;;;;605.17;66.03;;;;;;;;;;4937460;28;20501;-81
2022/01/13 07:06:48;;;;;;;332.27;48.22;;;;;;;;;;4935928;28;20801;-81
2022/01/13 07:09:47;;;;;;;274.23;45.45;;;;;;;;;;4939220;29;20500;-81
2022/01/13 07:12:13;;;;;;;266.58;44.20;;;;;;;;;;4909033;29;20425;-82
2022/01/13 07:14:57;;;;;;;269.07;44.87;;;;;;;;;;4938502;28;20909;-81
2022/01/13 07:17:27;;;;;;;254.70;43.33;;;;;;;;;;4928685;29;20517;-82
2022/01/13 07:19:59;;;;;;;229.90;42.03;;;;;;;;;;4934991;29;20557;-82
2022/01/13 07:22:28;;;;;;;551.45;61.22;;;;;;;;;;4922968;29;20436;-83
2022/01/13 07:25:19;;;;;;;430.40;52.65;;;;;;;;;;4918627;28;20439;-83
2022/01/13 07:27:53;;;;;;;250.38;41.70;;;;;;;;;;4937391;29;20438;-84
2022/01/13 07:30:19;;;;;;;365.63;48.65;;;;;;;;;;4938525;29;20480;-83
2022/01/13 07:32:45;;;;;;;542.72;62.35;;;;;;;;;;4916129;28;20786;-84
2022/01/13 07:35:11;;;;;;;300.73;43.05;;;;;;;;;;4900450;29;20424;-84
2022/01/13 07:37:39;;;;;;;214.18;38.80;;;;;;;;;;4920164;29;20411;-84
2022/01/13 07:40:06;;;;;;;222.70;39.75;;;;;;;;;;4942186;28;20424;-86
2022/01/13 07:42:35;;;;;;;319.33;44.20;;;;;;;;;;4923418;29;20426;-85
2022/01/13 07:45:01;;;;;;;223.50;40.83;;;;;;;;;;4936117;29;20461;-84
2022/01/13 07:47:27;;;;;;;214.63;40.00;;;;;;;;;;4902145;29;20776;-78
2022/01/13 07:49:53;;;;;;;224.73;39.97;;;;;;;;;;4925603;28;20431;-79
2022/01/13 07:52:25;;;;;;;211.05;38.03;;;;;;;;;;4918658;28;20425;-80
2022/01/13 07:54:52;;;;;;;262.52;42.65;;;;;;;;;;4914487;29;20518;-79
2022/01/13 07:57:18;;;;;;;241.25;40.17;;;;;;;;;;4912602;28;20434;-78
2022/01/13 07:59:44;;;;;;;307.75;44.33;;;;;;;;;;4935868;29;20430;-79
2022/01/13 08:02:10;;;;;;;217.90;39.13;;;;;;;;;;4918771;28;20429;-79
2022/01/13 08:04:36;;;;;;;202.23;38.25;;;;;;;;;;4920105;28;20953;-78
2022/01/13 08:07:02;;;;;;;364.90;48.40;;;;;;;;;;4910042;28;20437;-78
2022/01/13 08:09:29;;;;;;;292.27;44.87;;;;;;;;;;4935729;29;20545;-78
2022/01/13 08:11:55;;;;;;;188.65;37.13;;;;;;;;;;4937419;29;20438;-85
2022/01/13 08:14:21;;;;;;;213.70;40.15;;;;;;;;;;4920394;29;20930;-85
2022/01/13 08:16:49;;;;;;;244.57;42.13;;;;;;;;;;4914070;29;20433;-79
2022/01/13 08:22:00;;;;;;;292.23;44.53;;;;;;;;;;4948442;28;20525;-78
2022/01/13 08:24:26;;;;;;;191.75;40.22;;;;;;;;;;4919377;28;20532;-78
2022/01/13 08:26:52;;;;;;;231.82;42.55;;;;;;;;;;4918267;28;20948;-79
2022/01/13 08:29:18;;;;;;;288.33;44.53;;;;;;;;;;4913272;29;20538;-79
2022/01/13 08:31:45;;;;;;;378.20;51.90;;;;;;;;;;4917526;28;20429;-79
2022/01/13 08:34:13;;;;;;;216.87;41.63;;;;;;;;;;4935691;29;20989;-79
2022/01/13 08:36:40;;;;;;;223.85;43.67;;;;;;;;;;4950249;28;20433;-79
2022/01/13 08:39:09;;;;;;;270.05;44.92;;;;;;;;;;4922576;29;20484;-79
2022/01/13 08:41:39;;;;;;;578.53;70.00;;;;;;;;;;4949592;28;20425;-78
2022/01/13 08:44:13;;;;;;;234.05;41.63;;;;;;;;;;4922830;28;20496;-79
2022/01/13 08:46:40;;;;;;;188.15;40.38;;;;;;;;;;4916338;29;20867;-79
2022/01/13 08:49:09;;;;;;;272.38;45.40;;;;;;;;;;4916085;29;20488;-78
2022/01/13 08:51:36;;;;;;;258.20;43.92;;;;;;;;;;4896124;29;20704;-77
2022/01/13 08:54:02;;;;;;;212.82;42.47;;;;;;;;;;4911281;29;20425;-78
2022/01/13 08:56:28;;;;;;;212.90;39.67;;;;;;;;;;4933866;28;20480;-79
2022/01/13 08:58:55;;;;;;;198.10;39.75;;;;;;;;;;4930837;28;20502;-78
2022/01/13 09:01:21;;;;;;;257.20;43.50;;;;;;;;;;4924790;29;20456;-78
2022/01/13 09:03:47;;;;;;;219.55;40.70;;;;;;;;;;4930821;29;20957;-87
2022/01/13 09:06:14;;;;;;;175.20;38.65;;;;;;;;;;4920454;28;20774;-86
2022/01/13 09:08:40;;;;;;;213.23;41.75;;;;;;;;;;4926539;28;20429;-86
2022/01/13 09:11:07;;;;;;;234.70;42.80;;;;;;;;;;4935161;28;20426;-86
2022/01/13 09:13:36;;;;;;;193.02;40.17;;;;;;;;;;4937091;28;20510;-79
2022/01/13 09:16:04;;;;;;;205.15;40.08;;;;;;;;;;4919830;28;20421;-79
2022/01/13 09:18:34;;;;;;;231.60;44.10;;;;;;;;;;4918429;29;20417;-79
2022/01/13 09:21:01;;;;;;;257.40;45.75;;;;;;;;;;4903845;28;20434;-79
2022/01/13 09:23:27;;;;;;;226.15;45.45;;;;;;;;;;4917262;28;20589;-78
2022/01/13 09:25:54;;;;;;;219.03;45.83;;;;;;;;;;4920171;28;20431;-80
2022/01/13 09:28:21;;;;;;;232.15;46.45;;;;;;;;;;4936902;29;20502;-82
2022/01/13 09:36:00;;;;;;;182.23;43.28;;;;;;;;;;4536718;23;20461;-81
2022/01/13 09:38:26;;;;;;;199.60;45.73;;;;;;;;;;5389630;23;21171;-85
2022/01/13 09:43:56;;;;;;;166.75;44.92;;;;;;;;;;4846207;23;25108;-77
2022/01/13 09:46:26;;;;;;;166.43;45.47;;;;;;;;;;4908573;29;20566;-78
2022/01/13 09:48:52;;;;;;;150.77;43.63;;;;;;;;;;4909414;29;20451;-78
2022/01/13 09:51:18;;;;;;;168.67;45.20;;;;;;;;;;4883669;29;20529;-78
2022/01/13 09:53:44;;;;;;;171.18;44.80;;;;;;;;;;4896336;29;20504;-79
2022/01/13 09:56:11;;;;;;;181.35;49.05;;;;;;;;;;4902712;29;20504;-77
2022/01/13 09:58:37;;;;;;;162.15;44.17;;;;;;;;;;4902936;29;20440;-78
2022/01/13 10:01:03;;;;;;;164.40;43.63;;;;;;;;;;4906855;29;20517;-80
2022/01/13 10:03:30;;;;;;;169.63;45.22;;;;;;;;;;4898208;29;20427;-79
2022/01/13 10:05:58;;;;;;;145.18;42.03;;;;;;;;;;4915530;29;20440;-78
2022/01/13 10:08:59;;;;;;;139.35;44.25;;;;;;;;;;4915399;29;20766;-79
2022/01/13 10:11:26;;;;;;;151.80;41.65;;;;;;;;;;4870799;29;20439;-78
2022/01/13 10:14:05;;;;;;;165.60;44.60;;;;;;;;;;4897209;29;20472;-78
2022/01/13 10:16:32;;;;;;;169.33;45.77;;;;;;;;;;4915604;29;20423;-78
2022/01/13 10:18:58;;;;;;;203.40;48.28;;;;;;;;;;4924317;29;20775;-79
2022/01/13 10:21:24;;;;;;;159.68;44.55;;;;;;;;;;4896525;29;20512;-78
2022/01/13 10:24:09;;;;;;;160.68;47.15;;;6.70;99.90;;;;;;4914468;29;20470;-78
2022/01/13 10:26:36;;;;;;;168.50;45.40;;;;;;;;;;4907101;29;20409;-78
2022/01/13 10:29:04;;;;;;;173.60;47.15;;;;;;;;;;4918189;29;20445;-78
2022/01/13 10:31:46;;;;;;;145.95;44.33;;;;;;;;;;4919904;29;20473;-79
2022/01/13 10:34:16;;;;;;;159.43;44.55;;;;;;;;;;4929791;29;20436;-78
2022/01/13 10:37:03;;;;;;;168.37;45.33;;;;;;;;;;4892564;29;20438;-78
2022/01/13 10:39:49;;;;;;;157.43;43.53;;;;;;;;;;4907695;29;20437;-75
2022/01/13 10:45:01;;;;;;;121.45;40.85;;;;;;;;;;4909946;29;20482;-77
2022/01/13 10:47:28;;;;;;;150.80;41.40;;;;;;;;;;4880054;29;20461;-77
2022/01/13 10:49:59;;;;;;;158.75;42.88;;;;;;;;;;4907882;29;20431;-77
2022/01/13 10:52:26;;;;;;;136.02;40.35;;;;;;;;;;4903697;29;20427;-76
2022/01/13 10:55:00;;;;;;;135.57;42.03;;;;;;;;;;4894249;29;20446;-77
2022/01/13 10:57:27;;;;;;;122.97;38.42;;;;;;;;;;4893303;29;20774;-78
2022/01/13 10:59:54;;;;;;;128.48;37.00;;;;;;;;;;4902227;29;20428;-80
2022/01/13 11:02:20;;;;;;;119.68;39.28;;;;;;;;;;4880458;29;20440;-78
2022/01/13 11:04:47;;;;;;;107.53;37.45;;;;;;;;;;4894997;29;20487;-79
2022/01/13 11:07:17;;;;;;;118.37;38.13;;;;;;;;;;4887294;29;20438;-79
2022/01/13 11:09:51;;;;;;;115.35;37.90;;;;;;;;;;4888529;29;20498;-79
2022/01/13 11:12:17;;;;;;;108.18;36.22;;;;;;;;;;4885046;29;20440;-79
2022/01/13 11:14:45;;;;;;;107.18;36.05;;;;;;;;;;4859737;29;20433;-77
2022/01/13 11:17:11;;;;;;;97.80;35.50;;;;;;;;;;4875393;29;20484;-76
2022/01/13 11:19:41;;;;;;;96.78;36.03;;;;;;;;;;4875643;29;20575;-76
2022/01/13 11:22:07;;;;;;;109.40;35.60;;;;;;;;;;4892692;29;20527;-76
2022/01/13 11:24:33;;;;;;;94.20;36.33;;;;;;;;;;4893523;29;20512;-77
2022/01/13 11:26:59;;;;;;;93.38;34.28;;;7.10;99.90;;;;;;4863765;29;20469;-77
2022/01/13 11:29:26;;;;;;;102.97;34.58;;;;;;;;;;4894583;29;20448;-77
2022/01/13 11:31:52;;;;;;;90.70;34.70;;;;;;;;;;4878464;29;21012;-77
2022/01/13 11:34:18;;;;;;;90.80;34.30;;;;;;;;;;4870950;29;20507;-77
2022/01/13 11:36:45;;;;;;;90.00;33.63;;;;;;;;;;4892209;29;20983;-77
2022/01/13 11:39:11;;;;;;;87.63;33.38;;;;;;;;;;4862467;29;20881;-77
2022/01/13 11:41:56;;;;;;;75.75;32.47;;;;;;;;;;4863853;29;20472;-77
2022/01/13 11:44:22;;;;;;;76.53;32.08;;;;;;;;;;4886932;29;21017;-77
2022/01/13 11:46:50;;;;;;;77.55;33.63;;;;;;;;;;4886023;29;20524;-76
2022/01/13 11:49:43;;;;;;;76.10;31.30;;;;;;;;;;4909247;29;20447;-77
2022/01/13 11:52:15;;;;;;;72.00;31.90;;;;;;;;;;4909116;29;20447;-76
2022/01/13 11:54:43;;;;;;;73.40;31.33;;;;;;;;;;4891882;29;20520;-77
2022/01/13 11:57:09;;;;;;;76.32;31.42;;;;;;;;;;4905044;29;20441;-76
2022/01/13 11:59:35;;;;;;;79.72;31.88;;;;;;;;;;4893711;29;20430;-76
2022/01/13 12:02:20;;;;;;;76.25;33.53;;;;;;;;;;4890275;29;20431;-76
2022/01/13 12:05:01;;;;;;;68.43;31.15;;;;;;;;;;4910720;29;20448;-76
2022/01/13 12:07:35;;;;;;;68.70;31.65;;;;;;;;;;4911844;29;20541;-77
2022/01/13 12:10:01;;;;;;;71.07;31.20;;;;;;;;;;4896735;29;20446;-77
2022/01/13 12:12:31;;;;;;;70.53;32.13;;;;;;;;;;4914907;29;20440;-77
2022/01/13 12:15:17;;;;;;;74.72;32.63;;;;;;;;;;4908515;29;20778;-77
2022/01/13 12:17:44;;;;;;;66.60;31.77;;;;;;;;;;4910770;29;20427;-77
2022/01/13 12:20:24;;;;;;;69.15;31.30;;;;;;;;;;4903676;29;20574;-76
2022/01/13 12:23:03;;;;;;;68.07;32.45;;;;;;;;;;4912520;29;20493;-76
2022/01/13 12:25:31;;;;;;;62.75;30.95;;;;;;;;;;4913378;29;20437;-76
2022/01/13 12:27:58;;;;;;;60.90;30.63;;;;;;;;;;4891116;29;20429;-77
2022/01/13 12:30:29;;;;;;;57.03;29.30;;;;;;;;;;4877675;29;20991;-78
2022/01/13 12:32:57;;;;;;;55.47;29.45;;;;;;;;;;4887425;29;20866;-77
2022/01/13 12:35:23;;;;;;;60.75;30.90;;;;;;;;;;4904329;29;20431;-76
2022/01/13 12:37:59;;;;;;;54.83;29.88;;;;;;;;;;4891817;29;20813;-78
2022/01/13 12:40:26;;;;;;;60.05;29.58;;;;;;;;;;4909178;29;21814;-77
2022/01/13 12:42:53;;;;;;;59.72;29.83;;;;;;;;;;4893965;29;20850;-77
2022/01/13 12:45:33;;;;;;;66.10;31.30;;;;;;;;;;4908284;29;20469;-78
2022/01/13 12:47:59;;;;;;;63.67;31.27;;;;;;;;;;4894304;29;20780;-77
2022/01/13 12:50:35;;;;;;;55.20;29.45;;;7.70;99.90;;;;;;4874851;29;20437;-77
2022/01/13 12:53:09;;;;;;;56.65;30.77;;;;;;;;;;4892317;29;20520;-77
2022/01/13 12:55:36;;;;;;;50.37;28.97;;;;;;;;;;4893515;29;20512;-77
2022/01/13 12:58:03;;;;;;;56.72;29.30;;;;;;;;;;4878370;29;21049;-77
2022/01/13 13:00:30;;;;;;;56.08;29.80;;;;;;;;;;4890900;29;20480;-77
2022/01/13 13:03:07;;;;;;;55.65;29.15;;;;;;;;;;4893612;29;20869;-77
2022/01/13 13:05:38;;;;;;;57.20;29.48;;;;;;;;;;4891480;29;20445;-78
2022/01/13 13:08:05;;;;;;;54.40;29.50;;;;;;;;;;4892858;29;21048;-77
2022/01/13 13:10:33;;;;;;;53.50;29.40;;;;;;;;;;4876542;29;20437;-77
2022/01/13 13:13:00;;;;;;;48.95;28.77;;;;;;;;;;4893045;29;20500;-79
2022/01/13 13:17:54;;;;;;;53.85;29.60;;;;;;;;;;4892954;29;20468;-78
2022/01/13 13:20:25;;;;;;;52.63;28.13;;;;;;;;;;4892819;29;20436;-80
2022/01/13 13:22:57;;;;;;;50.00;28.03;;;;;;;;;;4886105;29;20480;-79
2022/01/13 13:25:43;;;;;;;50.17;27.58;;;;;;;;;;4903597;29;20437;-79
2022/01/13 13:28:22;;;;;;;49.53;27.08;;;;;;;;;;4893835;29;20558;-79
2022/01/13 13:30:50;;;;;;;45.08;26.90;;;7.80;99.90;;;;;;4888675;29;20846;-79
2022/01/13 13:33:18;;;;;;;43.23;26.63;;;;;;;;;;4890535;29;20435;-78
2022/01/13 13:35:45;;;;;;;45.03;24.65;;;;;;;;;;4900670;29;20431;-79
2022/01/13 13:38:12;;;;;;;43.20;26.27;;;;;;;;;;4883423;29;20433;-79
2022/01/13 13:40:43;;;;;;;46.28;26.33;;;;;;;;;;4910978;29;20427;-78
2022/01/13 13:43:09;;;;;;;43.90;24.08;;;;;;;;;;4892665;29;20443;-78
2022/01/13 13:45:35;;;;;;;40.60;24.77;;;;;;;;;;4892005;29;20774;-78
2022/01/13 13:48:01;;;;;;;42.45;24.85;;;;;;;;;;4893063;29;20432;-79
2022/01/13 13:50:29;;;;;;;41.30;24.13;;;;;;;;;;4908176;29;20454;-77
2022/01/13 13:53:05;;;;;;;40.83;25.15;;;;;;;;;;4904745;29;20575;-78
2022/01/13 13:55:31;;;;;;;39.90;23.45;;;;;;;;;;4882137;29;21027;-77
2022/01/13 13:57:57;;;;;;;42.08;24.02;;;;;;;;;;4904192;29;20475;-77
2022/01/13 14:00:26;;;;;;;43.75;24.17;;;;;;;;;;4888924;29;20484;-78
2022/01/13 14:02:54;;;;;;;45.20;25.02;;;;;;;;;;4886507;29;20992;-80
2022/01/13 14:05:24;;;;;;;40.50;25.07;;;;;;;;;;4887148;29;20510;-78
2022/01/13 14:07:50;;;;;;;39.83;23.83;;;;;;;;;;4908042;29;20425;-78
2022/01/13 14:10:18;;;;;;;41.40;24.63;;;;;;;;;;4910553;29;20459;-79
2022/01/13 14:12:56;;;;;;;40.92;23.58;;;;;;;;;;4889960;29;20460;-78
2022/01/13 14:15:25;;;;;;;42.10;22.67;;;;;;;;;;4908897;29;20768;-79
2022/01/13 14:17:56;;;;;;;39.78;22.67;;;;;;;;;;4890361;29;20480;-79
2022/01/13 14:20:23;;;;;;;36.65;22.80;;;;;;;;;;4904711;29;20750;-78
2022/01/13 14:23:00;;;;;;;40.10;23.80;;;;;;;;;;4901473;29;20437;-77
2022/01/13 14:25:31;;;;;;;41.45;22.55;;;;;;;;;;4880726;29;20452;-78
2022/01/13 14:27:59;;;;;;;40.67;22.60;;;;;;;;;;4883662;29;20756;-77
2022/01/13 14:30:32;;;;;;;36.88;22.25;;;;;;;;;;4891021;29;20428;-78
2022/01/13 14:33:17;;;;;;;38.13;21.95;;;;;;;;;;4911188;29;20790;-77
2022/01/13 14:35:45;;;;;;;39.63;22.00;;;;;;;;;;4904593;29;20454;-78
2022/01/13 14:38:12;;;;;;;39.95;22.30;;;;;;;;;;4906320;29;20483;-77
2022/01/13 14:40:46;;;;;;;40.33;22.05;;;;;;;;;;4869352;29;20462;-77
2022/01/13 14:43:20;;;;;;;42.95;24.00;;;;;;;;;;4915144;29;20863;-77
2022/01/13 14:45:47;;;;;;;42.70;21.98;;;;;;;;;;4894634;29;20938;-78
2022/01/13 14:48:14;;;;;;;37.38;20.92;;;;;;;;;;4887816;29;20439;-78
2022/01/13 14:50:40;;;;;;;39.25;21.00;;;;;;;;;;4883899;29;20473;-78
2022/01/13 14:53:06;;;;;;;35.47;21.08;;;;;;;;;;4905714;29;20518;-78
2022/01/13 14:55:33;;;;;;;40.88;22.15;;;;;;;;;;4910810;29;20897;-78
2022/01/13 14:57:59;;;;;;;40.63;22.60;;;;;;;;;;4885940;29;20459;-78
2022/01/13 15:00:25;;;;;;;44.97;21.92;;;;;;;;;;4912978;29;20438;-79
2022/01/13 15:02:51;;;;;;;44.45;24.13;;;;;;;;;;4872143;29;20907;-79
2022/01/13 15:05:18;;;;;;;42.75;21.83;;;;;;;;;;4915162;29;20435;-79
2022/01/13 15:07:45;;;;;;;44.17;24.00;;;8.50;99.90;;;;;;4912282;29;20431;-79
2022/01/13 15:10:11;;;;;;;50.20;23.92;;;;;;;;;;4906258;29;20791;-79
2022/01/13 15:12:37;;;;;;;50.92;24.30;;;;;;;;;;4895266;29;21009;-79
2022/01/13 15:15:03;;;;;;;42.80;23.60;;;;;;;;;;4879639;29;20447;-78
2022/01/13 15:17:29;;;;;;;43.72;23.90;;;;;;;;;;4890900;29;20416;-79
2022/01/13 15:19:55;;;;;;;41.55;24.85;;;;;;;;;;4895477;29;20436;-79
2022/01/13 15:22:22;;;;;;;48.08;26.35;;;;;;;;;;4895130;29;20458;-79
2022/01/13 15:24:48;;;;;;;45.88;26.17;;;;;;;;;;4898110;29;20776;-79
2022/01/13 15:27:14;;;;;;;49.53;27.40;;;;;;;;;;4883897;29;20440;-78
2022/01/13 15:29:41;;;;;;;48.57;26.27;;;;;;;;;;4910374;29;20506;-77
2022/01/13 15:32:07;;;;;;;50.90;27.60;;;;;;;;;;4906433;29;20500;-78
2022/01/13 15:34:33;;;;;;;51.05;26.25;;;;;;;;;;4893177;29;20430;-80
2022/01/13 15:36:59;;;;;;;46.63;27.35;;;;;;;;;;4890302;29;20504;-78
2022/01/13 15:39:26;;;;;;;46.53;27.15;;;;;;;;;;4894382;29;20516;-78
2022/01/13 15:41:52;;;;;;;50.47;26.52;;;;;;;;;;4910392;29;20439;-80
2022/01/13 15:44:18;;;;;;;53.80;26.85;;;;;;;;;;4904766;29;20464;-80
2022/01/13 15:46:44;;;;;;;48.55;26.50;;;;;;;;;;4907218;29;20439;-81
2022/01/13 15:49:10;;;;;;;50.75;26.70;;;;;;;;;;4887045;29;20437;-81
2022/01/13 15:51:36;;;;;;;51.65;26.48;;;;;;;;;;4883823;29;21691;-80
2022/01/13 15:54:03;;;;;;;45.88;25.52;;;;;;;;;;4905743;29;20425;-80
2022/01/13 15:56:29;;;;;;;47.38;24.63;;;;;;;;;;4898922;29;20433;-79
2022/01/13 15:58:55;;;;;;;44.63;24.58;;;;;;;;;;4883781;29;20437;-79
2022/01/13 16:01:21;;;;;;;45.25;24.52;;;;;;;;;;4873445;29;20433;-78
2022/01/13 16:03:47;;;;;;;49.13;24.38;;;;;;;;;;4906135;29;20435;-78
2022/01/13 16:06:14;;;;;;;46.38;24.42;;;;;;;;;;4889439;29;20442;-79
2022/01/13 16:08:40;;;;;;;48.42;24.23;;;;;;;;;;4891777;29;20482;-79
2022/01/13 16:11:09;;;;;;;46.40;24.55;;;;;;;;;;4908086;29;20441;-79
2022/01/13 16:13:37;;;;;;;48.93;24.93;;;;;;;;;;4911430;29;20978;-81
2022/01/13 16:16:04;;;;;;;48.17;25.67;;;;;;;;;;4905560;29;20490;-80
2022/01/13 16:18:30;;;;;;;52.67;25.17;;;;;;;;;;4893525;29;20431;-79
2022/01/13 16:20:56;;;;;;;53.90;25.65;;;;;;;;;;4886663;29;20440;-79
2022/01/13 16:23:22;;;;;;;50.30;26.10;;;;;;;;;;4899386;29;20431;-80
2022/01/13 16:25:49;;;;;;;51.13;26.25;;;;;;;;;;4893835;29;20433;-79
2022/01/13 16:28:15;;;;;;;47.35;25.52;;;;;;;;;;4895263;29;20490;-77
2022/01/13 16:30:41;;;;;;;53.80;25.13;;;;;;;;;;4874125;29;20456;-79
2022/01/13 16:33:07;;;;;;;48.95;25.15;;;;;;;;;;4878532;29;20435;-78
2022/01/13 16:35:35;;;;;;;50.10;26.08;;;;;;;;;;4910611;29;20751;-79